sensor_id;sensor_type;location;lat;lon;timestamp;temperature;humidity
36800;DHT22;22752;51.960;5.886;2022-09-30T00:01:36;6.00;99.90
36800;DHT22;22752;51.960;5.886;2022-09-30T00:04:04;6.00;99.90
36800;DHT22;22752;51.960;5.886;2022-09-30T00:06:31;6.00;99.90
36800;DHT22;22752;51.960;5.886;2022-09-30T00:08:57;5.90;99.90
36800;DHT22;22752;51.960;5.886;2022-09-30T00:11:26;5.90;99.90
36800;DHT22;22752;51.960;5.886;2022-09-30T00:13:54;5.90;99.90
36800;DHT22;22752;51.960;5.886;2022-09-30T00:16:21;6.00;99.90
36800;DHT22;22752;51.960;5.886;2022-09-30T00:18:47;6.00;99.90
36800;DHT22;22752;51.960;5.886;2022-09-30T00:21:13;6.00;99.90
36800;DHT22;22752;51.960;5.886;2022-09-30T00:23:41;5.90;99.90
36800;DHT22;22752;51.960;5.886;2022-09-30T00:26:11;5.90;99.90
36800;DHT22;22752;51.960;5.886;2022-09-30T00:28:38;5.90;99.90
36800;DHT22;22752;51.960;5.886;2022-09-30T00:31:06;5.90;99.90
36800;DHT22;22752;51.960;5.886;2022-09-30T00:33:33;5.90;99.90
36800;DHT22;22752;51.960;5.886;2022-09-30T00:35:59;5.80;99.90
36800;DHT22;22752;51.960;5.886;2022-09-30T00:38:26;5.80;99.90
36800;DHT22;22752;51.960;5.886;2022-09-30T00:40:51;5.80;99.90
36800;DHT22;22752;51.960;5.886;2022-09-30T00:43:36;5.80;99.90
36800;DHT22;22752;51.960;5.886;2022-09-30T00:46:03;5.80;99.90
36800;DHT22;22752;51.960;5.886;2022-09-30T00:48:38;5.80;99.90
36800;DHT22;22752;51.960;5.886;2022-09-30T00:51:05;5.80;99.90
36800;DHT22;22752;51.960;5.886;2022-09-30T00:56:10;5.80;99.90
36800;DHT22;22752;51.960;5.886;2022-09-30T00:58:42;5.70;99.90
36800;DHT22;22752;51.960;5.886;2022-09-30T01:01:10;5.70;99.90
36800;DHT22;22752;51.960;5.886;2022-09-30T01:03:40;5.60;99.90
36800;DHT22;22752;51.960;5.886;2022-09-30T01:06:07;5.60;99.90
36800;DHT22;22752;51.960;5.886;2022-09-30T01:08:36;5.60;99.90
36800;DHT22;22752;51.960;5.886;2022-09-30T01:11:02;5.60;99.90
36800;DHT22;22752;51.960;5.886;2022-09-30T01:13:30;5.60;99.90
36800;DHT22;22752;51.960;5.886;2022-09-30T01:16:48;5.60;99.90
36800;DHT22;22752;51.960;5.886;2022-09-30T01:18:54;5.50;99.90
36800;DHT22;22752;51.960;5.886;2022-09-30T01:24:23;5.50;99.90
36800;DHT22;22752;51.960;5.886;2022-09-30T01:27:09;5.50;99.90
36800;DHT22;22752;51.960;5.886;2022-09-30T01:29:59;5.50;99.90
36800;DHT22;22752;51.960;5.886;2022-09-30T01:35:17;5.50;99.90
36800;DHT22;22752;51.960;5.886;2022-09-30T01:40:32;5.40;99.90
36800;DHT22;22752;51.960;5.886;2022-09-30T01:45:45;5.40;99.90
36800;DHT22;22752;51.960;5.886;2022-09-30T01:48:21;5.30;99.90
36800;DHT22;22752;51.960;5.886;2022-09-30T01:51:06;5.30;99.90
36800;DHT22;22752;51.960;5.886;2022-09-30T01:53:55;5.30;99.90
36800;DHT22;22752;51.960;5.886;2022-09-30T01:56:29;5.30;99.90
36800;DHT22;22752;51.960;5.886;2022-09-30T01:59:22;5.20;99.90
36800;DHT22;22752;51.960;5.886;2022-09-30T02:01:56;5.20;99.90
36800;DHT22;22752;51.960;5.886;2022-09-30T02:04:31;5.20;99.90
36800;DHT22;22752;51.960;5.886;2022-09-30T02:07:02;5.20;99.90
36800;DHT22;22752;51.960;5.886;2022-09-30T02:09:59;5.20;99.90
36800;DHT22;22752;51.960;5.886;2022-09-30T02:12:28;5.20;99.90
36800;DHT22;22752;51.960;5.886;2022-09-30T02:15:07;5.10;99.90
36800;DHT22;22752;51.960;5.886;2022-09-30T02:18:25;5.00;99.90
36800;DHT22;22752;51.960;5.886;2022-09-30T02:20:27;5.10;99.90
36800;DHT22;22752;51.960;5.886;2022-09-30T02:23:16;5.10;99.90
36800;DHT22;22752;51.960;5.886;2022-09-30T02:25:48;5.10;99.90
36800;DHT22;22752;51.960;5.886;2022-09-30T02:28:21;5.10;99.90
36800;DHT22;22752;51.960;5.886;2022-09-30T02:30:50;5.10;99.90
36800;DHT22;22752;51.960;5.886;2022-09-30T02:33:22;5.10;99.90
36800;DHT22;22752;51.960;5.886;2022-09-30T02:35:54;5.10;99.90
36800;DHT22;22752;51.960;5.886;2022-09-30T02:38:27;5.00;99.90
36800;DHT22;22752;51.960;5.886;2022-09-30T02:41:07;5.00;99.90
36800;DHT22;22752;51.960;5.886;2022-09-30T02:43:34;5.00;99.90
36800;DHT22;22752;51.960;5.886;2022-09-30T02:51:16;4.90;99.90
36800;DHT22;22752;51.960;5.886;2022-09-30T02:54:26;4.90;99.90
36800;DHT22;22752;51.960;5.886;2022-09-30T02:57:17;4.90;99.90
36800;DHT22;22752;51.960;5.886;2022-09-30T02:59:50;4.80;99.90
36800;DHT22;22752;51.960;5.886;2022-09-30T03:02:16;4.80;99.90
36800;DHT22;22752;51.960;5.886;2022-09-30T03:04:44;4.80;99.90
36800;DHT22;22752;51.960;5.886;2022-09-30T03:07:11;4.70;99.90
36800;DHT22;22752;51.960;5.886;2022-09-30T03:09:36;4.80;99.90
36800;DHT22;22752;51.960;5.886;2022-09-30T03:26:52;4.70;99.90
36800;DHT22;22752;51.960;5.886;2022-09-30T03:30:12;4.70;99.90
36800;DHT22;22752;51.960;5.886;2022-09-30T03:32:29;4.80;99.90
36800;DHT22;22752;51.960;5.886;2022-09-30T03:35:20;4.70;99.90
36800;DHT22;22752;51.960;5.886;2022-09-30T03:40:46;4.70;99.90
36800;DHT22;22752;51.960;5.886;2022-09-30T03:43:23;4.70;99.90
36800;DHT22;22752;51.960;5.886;2022-09-30T03:46:23;4.70;99.90
36800;DHT22;22752;51.960;5.886;2022-09-30T03:48:52;4.70;99.90
36800;DHT22;22752;51.960;5.886;2022-09-30T03:51:20;4.70;99.90
36800;DHT22;22752;51.960;5.886;2022-09-30T03:53:46;4.70;99.90
36800;DHT22;22752;51.960;5.886;2022-09-30T03:56:12;4.70;99.90
36800;DHT22;22752;51.960;5.886;2022-09-30T03:58:42;4.60;99.90
36800;DHT22;22752;51.960;5.886;2022-09-30T04:01:16;4.70;99.90
36800;DHT22;22752;51.960;5.886;2022-09-30T04:03:49;4.70;99.90
36800;DHT22;22752;51.960;5.886;2022-09-30T04:06:20;4.80;99.90
36800;DHT22;22752;51.960;5.886;2022-09-30T04:08:46;4.80;99.90
36800;DHT22;22752;51.960;5.886;2022-09-30T04:11:12;4.80;99.90
36800;DHT22;22752;51.960;5.886;2022-09-30T04:13:38;4.70;99.90
36800;DHT22;22752;51.960;5.886;2022-09-30T04:16:05;4.70;99.90
36800;DHT22;22752;51.960;5.886;2022-09-30T04:18:36;4.70;99.90
36800;DHT22;22752;51.960;5.886;2022-09-30T04:21:06;4.60;99.90
36800;DHT22;22752;51.960;5.886;2022-09-30T04:23:39;4.60;99.90
36800;DHT22;22752;51.960;5.886;2022-09-30T04:26:08;4.60;99.90
36800;DHT22;22752;51.960;5.886;2022-09-30T04:28:35;4.60;99.90
36800;DHT22;22752;51.960;5.886;2022-09-30T04:31:02;4.60;99.90
36800;DHT22;22752;51.960;5.886;2022-09-30T04:33:27;4.50;99.90
36800;DHT22;22752;51.960;5.886;2022-09-30T04:35:54;4.50;99.90
36800;DHT22;22752;51.960;5.886;2022-09-30T04:38:21;4.50;99.90
36800;DHT22;22752;51.960;5.886;2022-09-30T04:40:49;4.50;99.90
36800;DHT22;22752;51.960;5.886;2022-09-30T04:43:16;4.50;99.90
36800;DHT22;22752;51.960;5.886;2022-09-30T04:45:44;4.50;99.90
36800;DHT22;22752;51.960;5.886;2022-09-30T04:48:13;4.40;99.90
36800;DHT22;22752;51.960;5.886;2022-09-30T04:50:40;4.50;99.90
36800;DHT22;22752;51.960;5.886;2022-09-30T04:53:06;4.40;99.90
36800;DHT22;22752;51.960;5.886;2022-09-30T04:55:32;4.40;99.90
36800;DHT22;22752;51.960;5.886;2022-09-30T04:57:58;4.40;99.90
36800;DHT22;22752;51.960;5.886;2022-09-30T05:00:23;4.40;99.90
36800;DHT22;22752;51.960;5.886;2022-09-30T05:02:50;4.40;99.90
36800;DHT22;22752;51.960;5.886;2022-09-30T05:05:16;4.40;99.90
36800;DHT22;22752;51.960;5.886;2022-09-30T05:07:42;4.40;99.90
36800;DHT22;22752;51.960;5.886;2022-09-30T05:10:09;4.40;99.90
36800;DHT22;22752;51.960;5.886;2022-09-30T05:12:36;4.40;99.90
36800;DHT22;22752;51.960;5.886;2022-09-30T05:15:03;4.40;99.90
36800;DHT22;22752;51.960;5.886;2022-09-30T05:17:29;4.40;99.90
36800;DHT22;22752;51.960;5.886;2022-09-30T05:19:55;4.40;99.90
36800;DHT22;22752;51.960;5.886;2022-09-30T05:22:22;4.30;99.90
36800;DHT22;22752;51.960;5.886;2022-09-30T05:24:49;4.40;99.90
36800;DHT22;22752;51.960;5.886;2022-09-30T05:27:15;4.30;99.90
36800;DHT22;22752;51.960;5.886;2022-09-30T05:29:42;4.30;99.90
36800;DHT22;22752;51.960;5.886;2022-09-30T05:32:08;4.30;99.90
36800;DHT22;22752;51.960;5.886;2022-09-30T05:34:34;4.20;99.90
36800;DHT22;22752;51.960;5.886;2022-09-30T05:36:59;4.20;99.90
36800;DHT22;22752;51.960;5.886;2022-09-30T05:39:25;4.20;99.90
36800;DHT22;22752;51.960;5.886;2022-09-30T05:41:50;4.20;99.90
36800;DHT22;22752;51.960;5.886;2022-09-30T05:44:16;4.20;99.90
36800;DHT22;22752;51.960;5.886;2022-09-30T05:46:43;4.20;99.90
36800;DHT22;22752;51.960;5.886;2022-09-30T05:49:09;4.20;99.90
36800;DHT22;22752;51.960;5.886;2022-09-30T05:51:34;4.30;99.90
36800;DHT22;22752;51.960;5.886;2022-09-30T05:54:01;4.30;99.90
36800;DHT22;22752;51.960;5.886;2022-09-30T05:56:26;4.40;99.90
36800;DHT22;22752;51.960;5.886;2022-09-30T05:58:52;4.40;99.90
36800;DHT22;22752;51.960;5.886;2022-09-30T06:01:18;4.50;99.90
36800;DHT22;22752;51.960;5.886;2022-09-30T06:03:44;4.50;99.90
36800;DHT22;22752;51.960;5.886;2022-09-30T06:06:11;4.60;99.90
36800;DHT22;22752;51.960;5.886;2022-09-30T06:08:38;4.80;99.90
36800;DHT22;22752;51.960;5.886;2022-09-30T06:11:15;4.80;99.90
36800;DHT22;22752;51.960;5.886;2022-09-30T06:13:43;4.80;99.90
36800;DHT22;22752;51.960;5.886;2022-09-30T06:16:10;4.90;99.90
36800;DHT22;22752;51.960;5.886;2022-09-30T06:18:36;5.00;99.90
36800;DHT22;22752;51.960;5.886;2022-09-30T06:21:04;5.00;99.90
36800;DHT22;22752;51.960;5.886;2022-09-30T06:23:31;5.10;99.90
36800;DHT22;22752;51.960;5.886;2022-09-30T06:25:57;5.20;99.90
36800;DHT22;22752;51.960;5.886;2022-09-30T06:28:23;5.30;99.90
36800;DHT22;22752;51.960;5.886;2022-09-30T06:30:49;5.40;99.90
36800;DHT22;22752;51.960;5.886;2022-09-30T06:33:15;5.50;99.90
36800;DHT22;22752;51.960;5.886;2022-09-30T06:35:42;5.70;99.90
36800;DHT22;22752;51.960;5.886;2022-09-30T06:38:09;6.10;99.90
36800;DHT22;22752;51.960;5.886;2022-09-30T06:40:35;6.70;99.90
36800;DHT22;22752;51.960;5.886;2022-09-30T06:43:01;7.30;99.90
36800;DHT22;22752;51.960;5.886;2022-09-30T06:45:27;7.90;99.90
36800;DHT22;22752;51.960;5.886;2022-09-30T06:48:00;8.50;99.90
36800;DHT22;22752;51.960;5.886;2022-09-30T06:50:26;9.10;99.90
36800;DHT22;22752;51.960;5.886;2022-09-30T06:52:56;9.50;99.90
36800;DHT22;22752;51.960;5.886;2022-09-30T06:55:24;10.00;99.90
36800;DHT22;22752;51.960;5.886;2022-09-30T06:57:52;10.50;99.90
36800;DHT22;22752;51.960;5.886;2022-09-30T07:00:17;10.80;99.90
36800;DHT22;22752;51.960;5.886;2022-09-30T07:02:43;11.20;99.90
36800;DHT22;22752;51.960;5.886;2022-09-30T07:05:09;11.50;99.90
36800;DHT22;22752;51.960;5.886;2022-09-30T07:07:34;11.80;99.90
36800;DHT22;22752;51.960;5.886;2022-09-30T07:10:02;12.00;99.90
36800;DHT22;22752;51.960;5.886;2022-09-30T07:12:28;12.30;99.90
36800;DHT22;22752;51.960;5.886;2022-09-30T07:14:54;12.60;99.90
36800;DHT22;22752;51.960;5.886;2022-09-30T07:17:21;12.80;99.90
36800;DHT22;22752;51.960;5.886;2022-09-30T07:19:46;13.00;99.90
36800;DHT22;22752;51.960;5.886;2022-09-30T07:22:12;13.20;99.90
36800;DHT22;22752;51.960;5.886;2022-09-30T07:25:00;13.40;99.90
36800;DHT22;22752;51.960;5.886;2022-09-30T07:27:28;13.60;99.90
36800;DHT22;22752;51.960;5.886;2022-09-30T07:29:54;13.80;99.90
36800;DHT22;22752;51.960;5.886;2022-09-30T07:32:20;14.00;99.90
36800;DHT22;22752;51.960;5.886;2022-09-30T07:34:47;14.10;99.90
36800;DHT22;22752;51.960;5.886;2022-09-30T07:37:15;14.20;99.90
36800;DHT22;22752;51.960;5.886;2022-09-30T07:39:45;14.30;99.90
36800;DHT22;22752;51.960;5.886;2022-09-30T07:42:13;14.40;99.90
36800;DHT22;22752;51.960;5.886;2022-09-30T07:44:39;14.50;99.90
36800;DHT22;22752;51.960;5.886;2022-09-30T07:47:08;14.60;99.90
36800;DHT22;22752;51.960;5.886;2022-09-30T07:49:35;14.60;99.90
36800;DHT22;22752;51.960;5.886;2022-09-30T07:52:01;14.60;99.90
36800;DHT22;22752;51.960;5.886;2022-09-30T07:54:29;14.60;99.90
36800;DHT22;22752;51.960;5.886;2022-09-30T07:56:57;14.70;99.90
36800;DHT22;22752;51.960;5.886;2022-09-30T07:59:23;14.70;99.90
36800;DHT22;22752;51.960;5.886;2022-09-30T08:01:49;14.80;99.90
36800;DHT22;22752;51.960;5.886;2022-09-30T08:04:17;14.80;99.90
36800;DHT22;22752;51.960;5.886;2022-09-30T08:06:46;14.90;99.90
36800;DHT22;22752;51.960;5.886;2022-09-30T08:09:13;15.00;99.90
36800;DHT22;22752;51.960;5.886;2022-09-30T08:11:40;15.10;99.90
36800;DHT22;22752;51.960;5.886;2022-09-30T08:14:11;15.30;99.90
36800;DHT22;22752;51.960;5.886;2022-09-30T08:16:37;15.40;99.90
36800;DHT22;22752;51.960;5.886;2022-09-30T08:19:03;15.30;99.90
36800;DHT22;22752;51.960;5.886;2022-09-30T08:21:29;15.10;99.90
36800;DHT22;22752;51.960;5.886;2022-09-30T08:23:55;14.90;99.90
36800;DHT22;22752;51.960;5.886;2022-09-30T08:26:21;14.60;99.90
36800;DHT22;22752;51.960;5.886;2022-09-30T08:28:47;14.20;99.90
36800;DHT22;22752;51.960;5.886;2022-09-30T08:31:16;14.00;99.90
36800;DHT22;22752;51.960;5.886;2022-09-30T08:33:42;13.70;99.90
36800;DHT22;22752;51.960;5.886;2022-09-30T08:36:13;13.50;99.90
36800;DHT22;22752;51.960;5.886;2022-09-30T08:38:39;13.40;99.90
36800;DHT22;22752;51.960;5.886;2022-09-30T08:52:00;13.10;99.90
36800;DHT22;22752;51.960;5.886;2022-09-30T08:54:33;13.00;99.90
36800;DHT22;22752;51.960;5.886;2022-09-30T08:57:01;13.00;99.90
36800;DHT22;22752;51.960;5.886;2022-09-30T08:59:57;13.00;99.90
36800;DHT22;22752;51.960;5.886;2022-09-30T09:02:33;13.00;99.90
36800;DHT22;22752;51.960;5.886;2022-09-30T09:05:04;13.00;99.90
36800;DHT22;22752;51.960;5.886;2022-09-30T09:07:46;13.00;99.90
36800;DHT22;22752;51.960;5.886;2022-09-30T09:23:44;13.20;99.90
36800;DHT22;22752;51.960;5.886;2022-09-30T09:26:13;13.20;99.90
36800;DHT22;22752;51.960;5.886;2022-09-30T09:31:16;13.30;99.90
36800;DHT22;22752;51.960;5.886;2022-09-30T09:33:43;13.30;99.90
36800;DHT22;22752;51.960;5.886;2022-09-30T09:41:59;13.50;99.90
36800;DHT22;22752;51.960;5.886;2022-09-30T09:44:53;13.50;99.90
36800;DHT22;22752;51.960;5.886;2022-09-30T09:47:20;13.50;99.90
36800;DHT22;22752;51.960;5.886;2022-09-30T09:49:55;13.50;99.90
36800;DHT22;22752;51.960;5.886;2022-09-30T09:52:43;13.60;99.90
36800;DHT22;22752;51.960;5.886;2022-09-30T09:55:16;13.60;99.90
36800;DHT22;22752;51.960;5.886;2022-09-30T09:57:43;13.70;99.90
36800;DHT22;22752;51.960;5.886;2022-09-30T10:00:25;13.70;99.90
36800;DHT22;22752;51.960;5.886;2022-09-30T10:03:19;13.90;99.90
36800;DHT22;22752;51.960;5.886;2022-09-30T10:08:31;14.00;99.90
36800;DHT22;22752;51.960;5.886;2022-09-30T10:11:03;14.00;99.90
36800;DHT22;22752;51.960;5.886;2022-09-30T10:13:30;14.10;99.90
36800;DHT22;22752;51.960;5.886;2022-09-30T10:15:58;14.10;99.90
36800;DHT22;22752;51.960;5.886;2022-09-30T10:18:35;14.10;99.90
36800;DHT22;22752;51.960;5.886;2022-09-30T10:21:05;14.20;99.90
36800;DHT22;22752;51.960;5.886;2022-09-30T10:23:38;14.20;99.90
36800;DHT22;22752;51.960;5.886;2022-09-30T10:31:40;14.30;99.90
36800;DHT22;22752;51.960;5.886;2022-09-30T10:36:42;14.30;99.90
36800;DHT22;22752;51.960;5.886;2022-09-30T10:39:23;14.40;99.90
36800;DHT22;22752;51.960;5.886;2022-09-30T10:42:00;14.40;99.90
36800;DHT22;22752;51.960;5.886;2022-09-30T10:44:26;14.50;99.90
36800;DHT22;22752;51.960;5.886;2022-09-30T10:46:58;14.50;99.90
36800;DHT22;22752;51.960;5.886;2022-09-30T10:49:29;14.50;99.90
36800;DHT22;22752;51.960;5.886;2022-09-30T10:51:57;14.60;99.90
36800;DHT22;22752;51.960;5.886;2022-09-30T10:54:34;14.60;99.90
36800;DHT22;22752;51.960;5.886;2022-09-30T10:57:00;14.70;99.90
36800;DHT22;22752;51.960;5.886;2022-09-30T10:59:36;14.70;99.90
36800;DHT22;22752;51.960;5.886;2022-09-30T11:02:29;14.70;99.90
36800;DHT22;22752;51.960;5.886;2022-09-30T11:05:04;14.80;99.90
36800;DHT22;22752;51.960;5.886;2022-09-30T11:07:45;14.80;99.90
36800;DHT22;22752;51.960;5.886;2022-09-30T11:16:03;15.00;99.90
36800;DHT22;22752;51.960;5.886;2022-09-30T11:18:40;15.10;99.90
36800;DHT22;22752;51.960;5.886;2022-09-30T11:21:14;15.20;99.90
36800;DHT22;22752;51.960;5.886;2022-09-30T11:24:04;15.30;99.90
36800;DHT22;22752;51.960;5.886;2022-09-30T11:40:19;15.70;99.90
36800;DHT22;22752;51.960;5.886;2022-09-30T11:43:13;15.60;99.90
36800;DHT22;22752;51.960;5.886;2022-09-30T11:57:08;15.70;99.90
36800;DHT22;22752;51.960;5.886;2022-09-30T12:02:28;15.70;99.90
36800;DHT22;22752;51.960;5.886;2022-09-30T12:05:00;15.70;99.90
36800;DHT22;22752;51.960;5.886;2022-09-30T12:07:44;15.70;99.90
36800;DHT22;22752;51.960;5.886;2022-09-30T12:10:24;15.80;99.90
36800;DHT22;22752;51.960;5.886;2022-09-30T12:13:03;15.90;99.90
36800;DHT22;22752;51.960;5.886;2022-09-30T12:15:34;16.00;99.90
36800;DHT22;22752;51.960;5.886;2022-09-30T12:18:07;16.00;99.90
36800;DHT22;22752;51.960;5.886;2022-09-30T12:23:27;16.20;99.90
36800;DHT22;22752;51.960;5.886;2022-09-30T12:26:00;16.20;99.90
36800;DHT22;22752;51.960;5.886;2022-09-30T12:48:20;16.90;99.90
36800;DHT22;22752;51.960;5.886;2022-09-30T12:50:55;16.90;99.90
36800;DHT22;22752;51.960;5.886;2022-09-30T12:53:32;17.00;99.90
36800;DHT22;22752;51.960;5.886;2022-09-30T12:56:05;17.00;99.90
36800;DHT22;22752;51.960;5.886;2022-09-30T12:58:40;17.00;99.90
36800;DHT22;22752;51.960;5.886;2022-09-30T13:06:19;17.10;99.90
36800;DHT22;22752;51.960;5.886;2022-09-30T13:09:54;17.20;99.90
36800;DHT22;22752;51.960;5.886;2022-09-30T13:14:38;17.10;99.90
36800;DHT22;22752;51.960;5.886;2022-09-30T13:27:51;17.20;99.90
36800;DHT22;22752;51.960;5.886;2022-09-30T13:33:05;17.20;99.90
36800;DHT22;22752;51.960;5.886;2022-09-30T13:43:15;17.30;99.90
36800;DHT22;22752;51.960;5.886;2022-09-30T13:45:44;17.30;99.90
36800;DHT22;22752;51.960;5.886;2022-09-30T13:48:15;17.20;99.90
36800;DHT22;22752;51.960;5.886;2022-09-30T13:50:52;17.10;99.90
36800;DHT22;22752;51.960;5.886;2022-09-30T13:55:58;17.20;99.90
36800;DHT22;22752;51.960;5.886;2022-09-30T13:58:39;17.30;99.90
36800;DHT22;22752;51.960;5.886;2022-09-30T14:01:17;17.50;99.90
36800;DHT22;22752;51.960;5.886;2022-09-30T14:07:16;17.60;99.90
36800;DHT22;22752;51.960;5.886;2022-09-30T14:12:24;17.30;99.90
36800;DHT22;22752;51.960;5.886;2022-09-30T14:18:01;17.20;99.90
36800;DHT22;22752;51.960;5.886;2022-09-30T14:23:31;17.40;99.90
36800;DHT22;22752;51.960;5.886;2022-09-30T14:26:21;17.40;99.90
36800;DHT22;22752;51.960;5.886;2022-09-30T14:29:19;17.50;99.90
36800;DHT22;22752;51.960;5.886;2022-09-30T14:31:47;17.40;99.90
36800;DHT22;22752;51.960;5.886;2022-09-30T14:34:15;17.40;99.90
36800;DHT22;22752;51.960;5.886;2022-09-30T14:36:43;17.30;99.90
36800;DHT22;22752;51.960;5.886;2022-09-30T14:39:21;17.30;99.90
36800;DHT22;22752;51.960;5.886;2022-09-30T14:41:54;17.40;99.90
36800;DHT22;22752;51.960;5.886;2022-09-30T14:44:23;17.50;99.90
36800;DHT22;22752;51.960;5.886;2022-09-30T14:46:50;17.60;99.90
36800;DHT22;22752;51.960;5.886;2022-09-30T14:49:22;17.60;99.90
36800;DHT22;22752;51.960;5.886;2022-09-30T14:51:57;17.60;99.90
36800;DHT22;22752;51.960;5.886;2022-09-30T14:54:26;17.50;99.90
36800;DHT22;22752;51.960;5.886;2022-09-30T14:56:55;17.40;99.90
36800;DHT22;22752;51.960;5.886;2022-09-30T14:59:27;17.30;99.90
36800;DHT22;22752;51.960;5.886;2022-09-30T15:02:00;17.40;99.90
36800;DHT22;22752;51.960;5.886;2022-09-30T15:04:33;17.30;99.90
36800;DHT22;22752;51.960;5.886;2022-09-30T15:07:01;17.30;99.90
36800;DHT22;22752;51.960;5.886;2022-09-30T15:12:21;17.10;99.90
36800;DHT22;22752;51.960;5.886;2022-09-30T15:17:24;16.80;99.90
36800;DHT22;22752;51.960;5.886;2022-09-30T15:19:52;16.70;99.90
36800;DHT22;22752;51.960;5.886;2022-09-30T15:22:18;16.60;99.90
36800;DHT22;22752;51.960;5.886;2022-09-30T15:24:46;16.60;99.90
36800;DHT22;22752;51.960;5.886;2022-09-30T15:29:55;16.60;99.90
36800;DHT22;22752;51.960;5.886;2022-09-30T15:32:23;16.70;99.90
36800;DHT22;22752;51.960;5.886;2022-09-30T15:34:50;16.70;99.90
36800;DHT22;22752;51.960;5.886;2022-09-30T15:37:23;16.80;99.90
36800;DHT22;22752;51.960;5.886;2022-09-30T15:39:49;16.90;99.90
36800;DHT22;22752;51.960;5.886;2022-09-30T15:42:40;17.10;99.90
36800;DHT22;22752;51.960;5.886;2022-09-30T15:47:57;17.20;99.90
36800;DHT22;22752;51.960;5.886;2022-09-30T15:50:38;17.20;99.90
36800;DHT22;22752;51.960;5.886;2022-09-30T15:53:46;17.10;99.90
36800;DHT22;22752;51.960;5.886;2022-09-30T15:56:35;17.00;99.90
36800;DHT22;22752;51.960;5.886;2022-09-30T15:59:03;16.80;99.90
36800;DHT22;22752;51.960;5.886;2022-09-30T16:01:34;16.70;99.90
36800;DHT22;22752;51.960;5.886;2022-09-30T16:04:04;16.60;99.90
36800;DHT22;22752;51.960;5.886;2022-09-30T16:06:41;16.50;99.90
36800;DHT22;22752;51.960;5.886;2022-09-30T16:09:28;16.40;99.90
36800;DHT22;22752;51.960;5.886;2022-09-30T16:11:59;16.30;99.90
36800;DHT22;22752;51.960;5.886;2022-09-30T16:14:29;16.20;99.90
36800;DHT22;22752;51.960;5.886;2022-09-30T16:16:58;16.10;99.90
36800;DHT22;22752;51.960;5.886;2022-09-30T16:19:26;16.00;99.90
36800;DHT22;22752;51.960;5.886;2022-09-30T16:21:53;16.00;99.90
36800;DHT22;22752;51.960;5.886;2022-09-30T16:26:48;16.00;99.90
36800;DHT22;22752;51.960;5.886;2022-09-30T16:29:14;16.00;99.90
36800;DHT22;22752;51.960;5.886;2022-09-30T16:31:41;16.00;99.90
36800;DHT22;22752;51.960;5.886;2022-09-30T16:34:29;16.00;99.90
36800;DHT22;22752;51.960;5.886;2022-09-30T16:37:22;15.90;99.90
36800;DHT22;22752;51.960;5.886;2022-09-30T16:39:48;15.80;99.90
36800;DHT22;22752;51.960;5.886;2022-09-30T16:42:16;15.70;99.90
36800;DHT22;22752;51.960;5.886;2022-09-30T16:44:41;15.50;99.90
36800;DHT22;22752;51.960;5.886;2022-09-30T16:47:13;15.40;99.90
36800;DHT22;22752;51.960;5.886;2022-09-30T16:49:39;15.30;99.90
36800;DHT22;22752;51.960;5.886;2022-09-30T16:52:08;15.20;99.90
36800;DHT22;22752;51.960;5.886;2022-09-30T16:54:33;15.10;99.90
36800;DHT22;22752;51.960;5.886;2022-09-30T16:56:59;15.00;99.90
36800;DHT22;22752;51.960;5.886;2022-09-30T16:59:24;14.90;99.90
36800;DHT22;22752;51.960;5.886;2022-09-30T17:01:50;14.80;99.90
36800;DHT22;22752;51.960;5.886;2022-09-30T17:04:16;14.70;99.90
36800;DHT22;22752;51.960;5.886;2022-09-30T17:06:42;14.60;99.90
36800;DHT22;22752;51.960;5.886;2022-09-30T17:09:08;14.60;99.90
36800;DHT22;22752;51.960;5.886;2022-09-30T17:11:35;14.60;99.90
36800;DHT22;22752;51.960;5.886;2022-09-30T17:14:03;14.60;99.90
36800;DHT22;22752;51.960;5.886;2022-09-30T17:16:28;14.50;99.90
36800;DHT22;22752;51.960;5.886;2022-09-30T17:18:54;14.40;99.90
36800;DHT22;22752;51.960;5.886;2022-09-30T17:21:23;14.30;99.90
36800;DHT22;22752;51.960;5.886;2022-09-30T17:23:49;14.20;99.90
36800;DHT22;22752;51.960;5.886;2022-09-30T17:26:15;14.10;99.90
36800;DHT22;22752;51.960;5.886;2022-09-30T17:28:41;14.10;99.90
36800;DHT22;22752;51.960;5.886;2022-09-30T17:31:08;14.10;99.90
36800;DHT22;22752;51.960;5.886;2022-09-30T17:33:37;14.00;99.90
36800;DHT22;22752;51.960;5.886;2022-09-30T17:36:05;14.00;99.90
36800;DHT22;22752;51.960;5.886;2022-09-30T17:38:32;13.90;99.90
36800;DHT22;22752;51.960;5.886;2022-09-30T17:40:58;13.80;99.90
36800;DHT22;22752;51.960;5.886;2022-09-30T17:43:43;13.80;99.90
36800;DHT22;22752;51.960;5.886;2022-09-30T17:46:10;13.70;99.90
36800;DHT22;22752;51.960;5.886;2022-09-30T17:48:36;13.70;99.90
36800;DHT22;22752;51.960;5.886;2022-09-30T17:51:04;13.70;99.90
36800;DHT22;22752;51.960;5.886;2022-09-30T17:53:31;13.60;99.90
36800;DHT22;22752;51.960;5.886;2022-09-30T17:56:05;13.60;99.90
36800;DHT22;22752;51.960;5.886;2022-09-30T17:58:34;13.50;99.90
36800;DHT22;22752;51.960;5.886;2022-09-30T18:01:08;13.50;99.90
36800;DHT22;22752;51.960;5.886;2022-09-30T18:03:34;13.60;99.90
36800;DHT22;22752;51.960;5.886;2022-09-30T18:06:00;13.60;99.90
36800;DHT22;22752;51.960;5.886;2022-09-30T18:08:26;13.60;99.90
36800;DHT22;22752;51.960;5.886;2022-09-30T18:10:53;13.60;99.90
36800;DHT22;22752;51.960;5.886;2022-09-30T18:13:19;13.50;99.90
36800;DHT22;22752;51.960;5.886;2022-09-30T18:15:45;13.40;99.90
36800;DHT22;22752;51.960;5.886;2022-09-30T18:18:11;13.30;99.90
36800;DHT22;22752;51.960;5.886;2022-09-30T18:20:45;13.30;99.90
36800;DHT22;22752;51.960;5.886;2022-09-30T18:23:12;13.30;99.90
36800;DHT22;22752;51.960;5.886;2022-09-30T18:25:39;13.20;99.90
36800;DHT22;22752;51.960;5.886;2022-09-30T18:28:08;13.10;99.90
36800;DHT22;22752;51.960;5.886;2022-09-30T18:30:35;13.10;99.90
36800;DHT22;22752;51.960;5.886;2022-09-30T18:33:01;13.00;99.90
36800;DHT22;22752;51.960;5.886;2022-09-30T18:35:28;12.90;99.90
36800;DHT22;22752;51.960;5.886;2022-09-30T18:37:55;12.80;99.90
36800;DHT22;22752;51.960;5.886;2022-09-30T18:40:23;12.80;99.90
36800;DHT22;22752;51.960;5.886;2022-09-30T18:42:56;12.80;99.90
36800;DHT22;22752;51.960;5.886;2022-09-30T18:45:33;12.80;99.90
36800;DHT22;22752;51.960;5.886;2022-09-30T18:48:03;12.80;99.90
36800;DHT22;22752;51.960;5.886;2022-09-30T18:50:29;12.80;99.90
36800;DHT22;22752;51.960;5.886;2022-09-30T18:52:55;12.80;99.90
36800;DHT22;22752;51.960;5.886;2022-09-30T18:55:22;12.80;99.90
36800;DHT22;22752;51.960;5.886;2022-09-30T18:57:48;12.80;99.90
36800;DHT22;22752;51.960;5.886;2022-09-30T19:00:15;12.90;99.90
36800;DHT22;22752;51.960;5.886;2022-09-30T19:02:42;12.90;99.90
36800;DHT22;22752;51.960;5.886;2022-09-30T19:05:10;12.80;99.90
36800;DHT22;22752;51.960;5.886;2022-09-30T19:07:35;12.80;99.90
36800;DHT22;22752;51.960;5.886;2022-09-30T19:10:07;12.80;99.90
36800;DHT22;22752;51.960;5.886;2022-09-30T19:12:34;12.90;99.90
36800;DHT22;22752;51.960;5.886;2022-09-30T19:15:01;12.90;99.90